Time;durP1;ratioP1;P1;durP2;ratioP2;P2;SDS_P1;SDS_P2;PMS_P1;PMS_P2;Temp;Humidity;BMP_temperature;BMP_pressure;BME280_temperature;BME280_humidity;BME280_pressure;Samples;Min_cycle;Max_cycle;Signal;HPM_P1;HPM_P2
2022/05/31 00:00:22;;;;;;;1999.90;999.90;;;13.30;99.90;;;;;;5077958;28;20432;-74
2022/05/31 00:02:49;;;;;;;1999.90;999.90;;;13.30;99.90;;;;;;5078038;28;20778;-74
2022/05/31 00:05:14;;;;;;;1999.90;999.90;;;13.20;99.90;;;;;;5077742;28;20482;-75
2022/05/31 00:07:41;;;;;;;1999.90;999.90;;;13.10;99.90;;;;;;5078062;28;20977;-74
2022/05/31 00:10:12;;;;;;;1999.90;999.90;;;13.10;99.90;;;;;;5077986;28;20617;-74
2022/05/31 00:12:39;;;;;;;1999.90;999.90;;;13.10;99.90;;;;;;5077940;28;20406;-74
2022/05/31 00:15:06;;;;;;;1999.90;999.90;;;13.00;99.90;;;;;;5077717;28;20409;-74
2022/05/31 00:17:32;;;;;;;1999.90;999.90;;;13.00;99.90;;;;;;5077903;28;20415;-74
2022/05/31 00:19:58;;;;;;;1999.90;999.90;;;13.00;99.90;;;;;;5077875;28;20504;-74
2022/05/31 00:22:26;;;;;;;1999.90;999.90;;;13.00;99.90;;;;;;5082830;28;20170;-74
2022/05/31 00:24:52;;;;;;;1999.90;999.90;;;12.90;99.90;;;;;;5083389;28;20594;-73
2022/05/31 00:27:21;;;;;;;1999.90;999.90;;;12.80;99.90;;;;;;5082743;28;20410;-73
2022/05/31 00:29:47;;;;;;;1999.90;999.90;;;12.80;99.90;;;;;;5081559;28;20438;-74
2022/05/31 00:32:15;;;;;;;1999.90;999.90;;;12.90;99.90;;;;;;5063331;28;20420;-74
2022/05/31 00:34:50;;;;;;;1999.90;999.90;;;12.90;99.90;;;;;;5062094;28;20419;-74
2022/05/31 00:37:18;;;;;;;1999.90;999.90;;;12.90;99.90;;;;;;5060263;28;20423;-73
2022/05/31 00:39:44;;;;;;;1999.90;999.90;;;12.90;99.90;;;;;;5058362;28;20442;-74
2022/05/31 00:42:19;;;;;;;1999.90;999.90;;;12.90;99.90;;;;;;5074736;28;20411;-74
2022/05/31 00:44:44;;;;;;;1999.90;999.90;;;12.90;99.90;;;;;;5074100;28;20198;-74
2022/05/31 00:47:23;;;;;;;1999.90;999.90;;;12.90;99.90;;;;;;5074387;28;20815;-74
2022/05/31 00:49:53;;;;;;;1999.90;999.90;;;12.90;99.90;;;;;;5074423;28;20207;-74
2022/05/31 00:52:27;;;;;;;1999.90;999.90;;;12.80;99.90;;;;;;5074287;28;20773;-74
2022/05/31 00:55:01;;;;;;;1999.90;999.90;;;12.90;99.90;;;;;;5074029;28;20411;-74
2022/05/31 00:57:28;;;;;;;1999.90;999.90;;;12.90;99.90;;;;;;5074290;28;20923;-74
2022/05/31 01:00:01;;;;;;;1999.90;999.90;;;12.80;99.90;;;;;;5074257;28;20428;-74
2022/05/31 01:02:27;;;;;;;1999.90;999.90;;;12.80;99.90;;;;;;5074078;28;20411;-74
2022/05/31 01:04:58;;;;;;;1999.90;999.90;;;12.80;99.90;;;;;;5073684;28;20451;-74
2022/05/31 01:07:24;;;;;;;1999.90;999.90;;;12.80;99.90;;;;;;5074004;28;20171;-74
2022/05/31 01:09:51;;;;;;;1999.90;999.90;;;12.80;99.90;;;;;;5073930;28;20423;-74
2022/05/31 01:12:17;;;;;;;1999.90;999.90;;;12.70;99.90;;;;;;5073923;28;20180;-74
2022/05/31 01:14:44;;;;;;;1999.90;999.90;;;12.70;99.90;;;;;;5073631;28;20494;-74
2022/05/31 01:17:19;;;;;;;1999.90;999.90;;;12.70;99.90;;;;;;5073772;28;20408;-74
2022/05/31 01:20:01;;;;;;;1999.90;999.90;;;12.70;99.90;;;;;;5073717;28;20846;-74
2022/05/31 01:22:51;;;;;;;1999.90;999.90;;;12.70;99.90;;;;;;5073794;28;20412;-74
2022/05/31 01:25:41;;;;;;;1999.90;999.90;;;12.70;99.90;;;;;;5073398;28;20530;-74
2022/05/31 01:28:14;;;;;;;1999.90;999.90;;;12.80;99.90;;;;;;5073450;28;20931;-74
2022/05/31 01:30:55;;;;;;;1999.90;999.90;;;12.80;99.90;;;;;;5073546;28;20525;-74
2022/05/31 01:33:33;;;;;;;1999.90;999.90;;;12.80;99.90;;;;;;5073617;28;20752;-74
2022/05/31 01:36:06;;;;;;;1999.90;999.90;;;12.80;99.90;;;;;;5073674;28;20748;-74
2022/05/31 01:38:39;;;;;;;1999.90;999.90;;;12.90;99.90;;;;;;5073290;28;20417;-74
2022/05/31 01:41:34;;;;;;;1999.90;999.90;;;12.80;99.90;;;;;;5073226;28;20403;-74
2022/05/31 01:44:02;;;;;;;1999.90;999.90;;;12.80;99.90;;;;;;5072995;28;20457;-74
2022/05/31 01:46:32;;;;;;;1999.90;999.90;;;12.80;99.90;;;;;;5073181;28;20415;-74
2022/05/31 01:48:59;;;;;;;1999.90;999.90;;;12.80;99.90;;;;;;5073174;28;20795;-74
2022/05/31 01:51:26;;;;;;;1999.90;999.90;;;12.80;99.90;;;;;;5073130;28;20522;-74
2022/05/31 01:53:54;;;;;;;1999.90;999.90;;;12.80;99.90;;;;;;5073059;28;20418;-74
2022/05/31 01:56:21;;;;;;;1999.90;999.90;;;12.70;99.90;;;;;;5072899;28;20402;-74
2022/05/31 01:58:49;;;;;;;1999.90;999.90;;;12.70;99.90;;;;;;5072904;28;20430;-74
2022/05/31 02:01:15;;;;;;;1999.90;999.90;;;12.70;99.90;;;;;;5072906;28;20403;-74
2022/05/31 02:03:42;;;;;;;1999.90;999.90;;;12.70;99.90;;;;;;5072777;28;20447;-74
2022/05/31 02:06:29;;;;;;;1999.90;999.90;;;12.60;99.90;;;;;;5072599;28;20588;-74
2022/05/31 02:08:56;;;;;;;1999.90;999.90;;;12.60;99.90;;;;;;5072822;28;20428;-74
2022/05/31 02:11:22;;;;;;;1999.90;999.90;;;12.60;99.90;;;;;;5072705;28;20404;-74
2022/05/31 02:13:48;;;;;;;1999.90;999.90;;;12.60;99.90;;;;;;5072601;28;20414;-74
2022/05/31 02:16:14;;;;;;;1999.90;999.90;;;12.60;99.90;;;;;;5072412;28;20230;-74
2022/05/31 02:21:24;;;;;;;1999.90;999.90;;;12.60;99.90;;;;;;5072619;28;20521;-74
2022/05/31 02:23:50;;;;;;;1999.90;999.90;;;12.50;99.90;;;;;;5072425;28;20543;-74
2022/05/31 02:26:15;;;;;;;1999.90;999.90;;;12.50;99.90;;;;;;5072472;28;20247;-74
2022/05/31 02:28:41;;;;;;;1999.90;999.90;;;12.50;99.90;;;;;;5072168;28;20203;-74
2022/05/31 02:31:07;;;;;;;1999.90;999.90;;;12.50;99.90;;;;;;5072418;28;20182;-74
2022/05/31 02:33:33;;;;;;;1999.90;999.90;;;12.50;99.90;;;;;;5072364;28;20558;-74
2022/05/31 02:35:58;;;;;;;1999.90;999.90;;;12.50;99.90;;;;;;5072094;28;20413;-74
2022/05/31 02:38:24;;;;;;;1999.90;999.90;;;12.50;99.90;;;;;;5072187;28;20429;-74
2022/05/31 02:40:50;;;;;;;1999.90;999.90;;;12.40;99.90;;;;;;5072305;28;20184;-74
2022/05/31 02:43:15;;;;;;;1999.90;999.90;;;12.40;99.90;;;;;;5072156;28;20546;-74
2022/05/31 02:45:41;;;;;;;1999.90;999.90;;;12.40;99.90;;;;;;5071934;28;20176;-74
2022/05/31 02:48:07;;;;;;;1999.90;999.90;;;12.40;99.90;;;;;;5072160;28;20226;-74
2022/05/31 02:50:32;;;;;;;1999.90;999.90;;;12.40;99.90;;;;;;5072127;28;20197;-74
2022/05/31 02:52:58;;;;;;;1999.90;999.90;;;12.40;99.90;;;;;;5071539;28;20394;-74
2022/05/31 02:55:23;;;;;;;1999.90;999.90;;;12.40;99.90;;;;;;5071718;28;20207;-74
2022/05/31 02:57:49;;;;;;;1999.90;999.90;;;12.40;99.90;;;;;;5071988;28;20174;-74
2022/05/31 03:00:15;;;;;;;1999.90;999.90;;;12.40;99.90;;;;;;5072081;28;20562;-74
2022/05/31 03:02:41;;;;;;;1999.90;999.90;;;12.40;99.90;;;;;;5072032;28;20632;-74
2022/05/31 03:05:07;;;;;;;1999.90;999.90;;;12.40;99.90;;;;;;5071652;28;20495;-74
2022/05/31 03:07:32;;;;;;;1999.90;999.90;;;12.40;99.90;;;;;;5071959;28;20164;-74
2022/05/31 03:09:58;;;;;;;1999.90;999.90;;;12.40;99.90;;;;;;5071812;28;20990;-74
2022/05/31 03:12:27;;;;;;;1999.90;999.90;;;12.40;99.90;;;;;;5071999;28;20720;-74
2022/05/31 03:15:16;;;;;;;1999.90;999.90;;;12.50;99.90;;;;;;5071741;28;20198;-74
2022/05/31 03:17:48;;;;;;;1999.90;999.90;;;12.50;99.90;;;;;;5061747;28;20425;-74
2022/05/31 03:20:30;;;;;;;1999.90;999.90;;;12.50;99.90;;;;;;5071688;28;20938;-74
2022/05/31 03:23:21;;;;;;;1999.90;999.90;;;12.50;99.90;;;;;;5071773;28;20459;-74
2022/05/31 03:25:49;;;;;;;1999.90;999.90;;;12.50;99.90;;;;;;5032979;28;20423;-74
2022/05/31 03:28:16;;;;;;;1999.90;999.90;;;12.50;99.90;;;;;;5071472;28;20489;-74
2022/05/31 03:30:42;;;;;;;1999.90;999.90;;;12.50;99.90;;;;;;5110158;22;21021;-74
2022/05/31 03:33:09;;;;;;;1999.90;999.90;;;12.40;99.90;;;;;;5071728;28;20390;-74
2022/05/31 03:35:36;;;;;;;1999.90;999.90;;;12.50;99.90;;;;;;5071451;28;20179;-74
2022/05/31 03:38:02;;;;;;;1999.90;999.90;;;12.50;99.90;;;;;;5071694;28;20477;-74
2022/05/31 03:43:11;;;;;;;1999.90;999.90;;;12.50;99.90;;;;;;5071610;28;20929;-74
2022/05/31 03:45:42;;;;;;;1999.90;999.90;;;12.50;99.90;;;;;;5071272;28;20450;-74
2022/05/31 03:48:09;;;;;;;1999.90;999.90;;;12.50;99.90;;;;;;5071607;28;20187;-74
2022/05/31 03:50:38;;;;;;;1999.90;999.90;;;12.50;99.90;;;;;;5071433;28;20425;-74
2022/05/31 03:53:05;;;;;;;1999.90;999.90;;;12.50;99.90;;;;;;5071552;28;20402;-74
2022/05/31 03:55:31;;;;;;;1999.90;999.90;;;12.50;99.90;;;;;;5071205;28;20546;-74
2022/05/31 03:57:57;;;;;;;1999.90;999.90;;;12.50;99.90;;;;;;5071488;28;20787;-74
2022/05/31 04:00:23;;;;;;;1999.90;999.90;;;12.50;99.90;;;;;;5071418;28;20191;-74
2022/05/31 04:02:48;;;;;;;1999.90;999.90;;;12.50;99.90;;;;;;5071472;28;21081;-74
2022/05/31 04:05:14;;;;;;;1999.90;999.90;;;12.40;99.90;;;;;;5072610;28;20455;-74
2022/05/31 04:07:40;;;;;;;1999.90;999.90;;;12.40;99.90;;;;;;5075119;28;20238;-74
2022/05/31 04:10:07;;;;;;;1999.90;999.90;;;12.40;99.90;;;;;;5057042;28;20465;-74
2022/05/31 04:12:38;;;;;;;1999.90;999.90;;;12.40;99.90;;;;;;5074992;28;20660;-74
2022/05/31 04:15:04;;;;;;;1999.90;999.90;;;12.30;99.90;;;;;;5074750;28;20484;-74
2022/05/31 04:17:30;;;;;;;1999.90;999.90;;;12.20;99.90;;;;;;5075011;28;20406;-74
2022/05/31 04:19:56;;;;;;;1999.90;999.90;;;12.20;99.90;;;;;;5074815;28;20993;-74
2022/05/31 04:22:21;;;;;;;1999.90;999.90;;;12.20;99.90;;;;;;5075346;28;20165;-74
2022/05/31 04:24:47;;;;;;;1999.90;999.90;;;12.20;99.90;;;;;;5074408;28;20223;-74
2022/05/31 04:27:16;;;;;;;1999.90;999.90;;;12.20;99.90;;;;;;5074782;28;20174;-74
2022/05/31 04:29:42;;;;;;;1999.90;999.90;;;12.20;99.90;;;;;;5074540;28;20253;-74
2022/05/31 04:32:08;;;;;;;1999.90;999.90;;;12.20;99.90;;;;;;5074694;28;20414;-74
2022/05/31 04:34:34;;;;;;;1999.90;999.90;;;12.20;99.90;;;;;;5074353;28;20195;-74
2022/05/31 04:37:00;;;;;;;1999.90;999.90;;;12.20;99.90;;;;;;5074633;28;20509;-74
2022/05/31 04:39:26;;;;;;;1999.90;999.90;;;12.20;99.90;;;;;;5074453;28;20523;-74
2022/05/31 04:41:51;;;;;;;1999.90;999.90;;;12.20;99.90;;;;;;5074498;28;20401;-74
2022/05/31 04:44:18;;;;;;;1999.90;999.90;;;12.20;99.90;;;;;;5074142;28;20877;-74
2022/05/31 04:46:43;;;;;;;1999.90;999.90;;;12.20;99.90;;;;;;5074415;28;20163;-74
2022/05/31 04:49:09;;;;;;;1999.90;999.90;;;12.20;99.90;;;;;;5074302;28;20923;-74
2022/05/31 04:51:35;;;;;;;1999.90;999.90;;;12.30;99.90;;;;;;5074343;28;20171;-74
2022/05/31 04:54:04;;;;;;;1999.90;999.90;;;12.20;99.90;;;;;;5073917;28;20201;-74
2022/05/31 04:56:30;;;;;;;1999.90;999.90;;;12.30;99.90;;;;;;5074276;28;20586;-74
2022/05/31 04:58:56;;;;;;;1999.90;999.90;;;12.20;99.90;;;;;;5074083;28;20422;-75
2022/05/31 05:01:23;;;;;;;1999.90;999.90;;;12.20;99.90;;;;;;5074239;28;20497;-74
2022/05/31 05:03:50;;;;;;;1999.90;999.90;;;12.20;99.90;;;;;;5073980;28;20441;-74
2022/05/31 05:06:17;;;;;;;1999.90;999.90;;;12.30;99.90;;;;;;5073800;28;20415;-74
2022/05/31 05:08:44;;;;;;;1999.90;999.90;;;12.20;99.90;;;;;;5073806;28;20435;-74
2022/05/31 05:11:13;;;;;;;1999.90;999.90;;;12.20;99.90;;;;;;5074093;28;20406;-74
2022/05/31 05:13:39;;;;;;;1999.90;999.90;;;12.30;99.90;;;;;;5073834;28;20596;-74
2022/05/31 05:16:06;;;;;;;1999.90;999.90;;;12.20;99.90;;;;;;5073147;28;20413;-73
2022/05/31 05:18:34;;;;;;;1999.90;999.90;;;12.00;99.90;;;;;;5073758;28;20397;-73
2022/05/31 05:21:00;;;;;;;1999.90;999.90;;;12.00;99.90;;;;;;5073791;28;20393;-73
2022/05/31 05:23:26;;;;;;;1999.90;999.90;;;12.00;99.90;;;;;;5073732;28;20463;-74
2022/05/31 05:25:54;;;;;;;1999.90;999.90;;;12.10;99.90;;;;;;5073600;28;20891;-73
2022/05/31 05:31:35;;;;;;;1999.90;999.90;;;12.10;99.90;;;;;;5073669;28;20478;-73
2022/05/31 05:34:03;;;;;;;1999.90;999.90;;;12.10;99.90;;;;;;5073370;28;20435;-73
2022/05/31 05:36:29;;;;;;;1999.90;999.90;;;12.20;99.90;;;;;;5073528;28;20436;-74
2022/05/31 05:38:55;;;;;;;1999.90;999.90;;;12.30;99.90;;;;;;5073290;28;20476;-73
2022/05/31 05:41:23;;;;;;;1999.90;999.90;;;12.30;99.90;;;;;;5055439;28;20399;-73
2022/05/31 05:43:49;;;;;;;1999.90;999.90;;;12.40;99.90;;;;;;5055273;28;20681;-74
2022/05/31 05:46:17;;;;;;;1999.90;999.90;;;12.50;99.90;;;;;;5055140;28;20452;-74
2022/05/31 05:48:43;;;;;;;1999.90;999.90;;;12.70;99.90;;;;;;5073210;28;20167;-73
2022/05/31 05:51:16;;;;;;;1999.90;999.90;;;12.80;99.90;;;;;;5073193;28;20417;-73
2022/05/31 05:53:41;;;;;;;1999.90;999.90;;;12.90;99.90;;;;;;5073093;28;20790;-74
2022/05/31 05:56:08;;;;;;;1999.90;999.90;;;13.00;99.90;;;;;;5072902;28;20577;-74
2022/05/31 05:58:33;;;;;;;1999.90;999.90;;;13.10;99.90;;;;;;5072788;28;20180;-74
2022/05/31 06:01:00;;;;;;;1999.90;999.90;;;13.20;99.90;;;;;;5073017;28;20402;-73
2022/05/31 06:03:42;;;;;;;1999.90;999.90;;;13.00;99.90;;;;;;5072984;28;20167;-74
2022/05/31 06:06:09;;;;;;;1999.90;999.90;;;12.90;99.90;;;;;;5072621;28;20399;-73
2022/05/31 06:08:42;;;;;;;1999.90;999.90;;;12.70;99.90;;;;;;5072744;28;20412;-74
2022/05/31 06:11:14;;;;;;;1999.90;999.90;;;12.70;99.90;;;;;;5072850;28;20460;-74
2022/05/31 06:13:45;;;;;;;1999.90;999.90;;;12.90;99.90;;;;;;5072903;28;20458;-74
2022/05/31 06:16:12;;;;;;;1999.90;999.90;;;13.00;99.90;;;;;;5072588;28;20491;-74
2022/05/31 06:18:45;;;;;;;1999.90;999.90;;;13.20;99.90;;;;;;5072631;28;20412;-74
2022/05/31 06:21:13;;;;;;;1999.90;999.90;;;13.40;99.90;;;;;;5072667;28;20403;-74
2022/05/31 06:23:39;;;;;;;1999.90;999.90;;;13.70;99.90;;;;;;5072434;28;20440;-74
2022/05/31 06:26:05;;;;;;;1999.90;999.90;;;13.90;99.90;;;;;;5072319;28;20753;-74
2022/05/31 06:28:30;;;;;;;1999.90;999.90;;;14.10;99.90;;;;;;5071655;28;20163;-74
2022/05/31 06:30:56;;;;;;;1999.90;999.90;;;14.30;99.90;;;;;;5072673;28;20725;-74
2022/05/31 06:33:21;;;;;;;1999.90;999.90;;;14.40;99.90;;;;;;5072484;28;20248;-74
2022/05/31 06:35:47;;;;;;;1999.90;999.90;;;14.50;99.90;;;;;;5072226;28;20198;-75
2022/05/31 06:38:16;;;;;;;1999.90;999.90;;;14.60;99.90;;;;;;5072230;28;20628;-75
2022/05/31 06:40:42;;;;;;;1999.90;999.90;;;14.60;99.90;;;;;;5072265;28;20608;-74
2022/05/31 06:43:07;;;;;;;1999.90;999.90;;;14.70;99.90;;;;;;5072486;28;20402;-74
2022/05/31 06:45:34;;;;;;;1999.90;999.90;;;14.80;99.90;;;;;;5071942;28;20228;-74
2022/05/31 06:47:59;;;;;;;1999.90;999.90;;;14.90;99.90;;;;;;5072242;28;20219;-74
2022/05/31 06:50:25;;;;;;;1999.90;999.90;;;15.10;99.90;;;;;;5072133;28;20417;-75
2022/05/31 06:58:18;;;;;;;1999.90;999.90;;;15.60;99.90;;;;;;5072090;28;20468;-74
2022/05/31 07:00:44;;;;;;;1999.90;999.90;;;15.60;99.90;;;;;;5071978;28;20423;-74
2022/05/31 07:03:09;;;;;;;1999.90;999.90;;;15.40;99.90;;;;;;5071933;28;20523;-74
2022/05/31 07:05:35;;;;;;;1999.90;999.90;;;15.30;99.90;;;;;;5071660;28;20193;-75
2022/05/31 07:08:01;;;;;;;1999.90;999.90;;;15.10;99.90;;;;;;5071894;28;20163;-74
2022/05/31 07:10:26;;;;;;;1999.90;999.90;;;15.00;99.90;;;;;;5071897;28;20195;-74
2022/05/31 07:12:52;;;;;;;1999.90;999.90;;;14.90;99.90;;;;;;5071818;28;20176;-74
2022/05/31 07:15:18;;;;;;;1999.90;999.90;;;15.00;99.90;;;;;;5071660;28;20173;-74
2022/05/31 07:17:46;;;;;;;1999.90;999.90;;;15.00;99.90;;;;;;5071771;28;20170;-75
2022/05/31 07:20:11;;;;;;;1999.90;999.90;;;15.10;99.90;;;;;;5071842;28;20421;-74
2022/05/31 07:22:38;;;;;;;1999.90;999.90;;;15.30;99.90;;;;;;5071864;28;20944;-74
2022/05/31 07:25:05;;;;;;;1999.90;999.90;;;15.50;99.90;;;;;;5071459;28;20630;-74
2022/05/31 07:27:30;;;;;;;1999.90;999.90;;;15.70;99.90;;;;;;5071788;28;20419;-74
2022/05/31 07:29:56;;;;;;;1999.90;999.90;;;15.80;99.90;;;;;;5071541;28;20819;-74
2022/05/31 07:32:22;;;;;;;1999.90;999.90;;;15.90;99.90;;;;;;5071693;28;20168;-74
2022/05/31 07:34:49;;;;;;;1999.90;999.90;;;16.00;99.90;;;;;;5071524;28;20253;-74
2022/05/31 07:37:14;;;;;;;1999.90;999.90;;;16.00;99.90;;;;;;5071656;28;20217;-74
2022/05/31 07:39:40;;;;;;;1999.90;999.90;;;16.20;99.90;;;;;;5074071;28;20946;-74
2022/05/31 07:42:06;;;;;;;1999.90;999.90;;;16.10;99.90;;;;;;5075695;28;20190;-74
2022/05/31 07:44:32;;;;;;;1999.90;999.90;;;16.10;99.90;;;;;;5075448;28;20598;-74
2022/05/31 07:47:00;;;;;;;1999.90;999.90;;;16.00;99.90;;;;;;5075528;28;20701;-74
2022/05/31 07:49:25;;;;;;;1999.90;999.90;;;15.90;99.90;;;;;;5075491;28;20421;-74
2022/05/31 07:51:51;;;;;;;1999.90;999.90;;;15.90;99.90;;;;;;5075458;28;20401;-74
2022/05/31 07:54:17;;;;;;;1999.90;999.90;;;15.70;99.90;;;;;;5075458;28;20536;-74
2022/05/31 07:56:42;;;;;;;1999.90;999.90;;;15.60;99.90;;;;;;5075394;28;20171;-74
2022/05/31 07:59:09;;;;;;;1999.90;999.90;;;15.40;99.90;;;;;;5075296;28;20277;-74
2022/05/31 08:01:35;;;;;;;1999.90;999.90;;;15.40;99.90;;;;;;5075246;28;20170;-74
2022/05/31 08:04:00;;;;;;;1999.90;999.90;;;15.30;99.90;;;;;;5056955;28;20469;-74
2022/05/31 08:06:32;;;;;;;1999.90;999.90;;;15.30;99.90;;;;;;5075156;28;20399;-74
2022/05/31 08:08:57;;;;;;;1999.90;999.90;;;15.30;99.90;;;;;;5075126;28;20232;-74
2022/05/31 08:11:26;;;;;;;1999.90;999.90;;;15.30;99.90;;;;;;5075050;28;20491;-74
2022/05/31 08:13:53;;;;;;;1999.90;999.90;;;15.30;99.90;;;;;;5075000;28;20167;-74
2022/05/31 08:16:24;;;;;;;1999.90;999.90;;;15.40;99.90;;;;;;5074757;28;20468;-74
2022/05/31 08:18:51;;;;;;;1999.90;999.90;;;15.50;99.90;;;;;;5074934;28;20949;-74
2022/05/31 08:21:20;;;;;;;1999.90;999.90;;;15.50;99.90;;;;;;5074931;28;21155;-74
2022/05/31 08:23:45;;;;;;;1999.90;999.90;;;15.50;99.90;;;;;;5074749;28;20437;-74
2022/05/31 08:26:11;;;;;;;1999.90;999.90;;;15.60;99.90;;;;;;5074577;28;20775;-74
2022/05/31 08:28:38;;;;;;;1999.90;999.90;;;15.60;99.90;;;;;;5074494;28;20556;-74
2022/05/31 08:31:12;;;;;;;1999.90;999.90;;;15.70;99.90;;;;;;5074722;28;20417;-74
2022/05/31 08:33:39;;;;;;;1999.90;999.90;;;15.70;99.90;;;;;;5074628;28;20409;-75
2022/05/31 08:36:05;;;;;;;1999.90;999.90;;;15.90;99.90;;;;;;5074257;28;20458;-74
2022/05/31 08:38:31;;;;;;;1999.90;999.90;;;16.00;99.90;;;;;;5074569;28;20472;-74
2022/05/31 08:41:03;;;;;;;1999.90;999.90;;;16.00;99.90;;;;;;5074552;28;20412;-74
2022/05/31 08:43:46;;;;;;;1999.90;999.90;;;16.10;99.90;;;;;;5074447;28;20404;-74
2022/05/31 08:46:27;;;;;;;1999.90;999.90;;;16.00;99.90;;;;;;5074239;28;20411;-74
2022/05/31 08:49:20;;;;;;;1999.90;999.90;;;16.00;99.90;;;;;;5074319;28;20428;-74
2022/05/31 08:52:03;;;;;;;1999.90;999.90;;;16.00;99.90;;;;;;5073549;28;20450;-73
2022/05/31 08:57:52;;;;;;;1999.90;999.90;;;16.30;99.90;;;;;;5074267;28;20403;-74
2022/05/31 09:00:26;;;;;;;1999.90;999.90;;;16.40;99.90;;;;;;5074102;28;20428;-74
2022/05/31 09:03:07;;;;;;;1999.90;999.90;;;16.50;99.90;;;;;;5074260;28;20424;-74
2022/05/31 09:05:40;;;;;;;1999.90;999.90;;;16.70;99.90;;;;;;5073770;28;20455;-74
2022/05/31 09:08:14;;;;;;;1999.90;999.90;;;16.80;99.90;;;;;;5074020;28;20406;-73
2022/05/31 09:10:45;;;;;;;1999.90;999.90;;;16.90;99.90;;;;;;5074082;28;20792;-74
2022/05/31 09:13:25;;;;;;;1999.90;999.90;;;17.20;99.90;;;;;;5074219;28;20482;-75
2022/05/31 09:15:58;;;;;;;1999.90;999.90;;;17.40;99.90;;;;;;5073726;28;20416;-73
2022/05/31 09:18:38;;;;;;;1999.90;999.90;;;17.50;99.90;;;;;;5073846;28;20408;-74
2022/05/31 09:21:07;;;;;;;1999.90;999.90;;;17.50;99.90;;;;;;5073853;28;20394;-74
2022/05/31 09:23:37;;;;;;;1999.90;999.90;;;17.60;99.90;;;;;;5073717;28;20401;-73
2022/05/31 09:26:08;;;;;;;1999.90;999.90;;;17.80;99.90;;;;;;5073490;28;20394;-73
2022/05/31 09:28:52;;;;;;;1999.90;999.90;;;17.90;99.90;;;;;;5073552;28;20550;-74
2022/05/31 09:31:36;;;;;;;1999.90;999.90;;;18.10;99.90;;;;;;5112032;22;20902;-74
2022/05/31 09:34:35;;;;;;;1999.90;999.90;;;18.10;99.90;;;;;;5073909;28;20408;-73
2022/05/31 09:37:33;;;;;;;1999.90;999.90;;;18.20;99.90;;;;;;5073879;28;20466;-75
2022/05/31 09:40:10;;;;;;;1999.90;999.90;;;18.40;99.90;;;;;;5073423;28;20472;-75
2022/05/31 09:43:06;;;;;;;1999.90;999.90;;;18.60;99.90;;;;;;5073465;28;20406;-75
2022/05/31 09:45:35;;;;;;;1999.90;999.90;;;18.70;99.90;;;;;;5072916;28;20467;-75
2022/05/31 09:48:04;;;;;;;1999.90;999.90;;;18.90;99.90;;;;;;5075699;28;20405;-74
2022/05/31 09:50:31;;;;;;;1999.90;999.90;;;19.00;99.90;;;;;;5063375;28;20423;-75
2022/05/31 09:52:57;;;;;;;1999.90;999.90;;;19.00;99.90;;;;;;5063100;28;20781;-74
2022/05/31 09:58:18;;;;;;;1999.90;999.90;;;19.00;99.90;;;;;;5073317;28;20182;-75
2022/05/31 10:01:22;;;;;;;1999.90;999.90;;;19.00;99.90;;;;;;5072942;28;20957;-75
2022/05/31 10:03:53;;;;;;;1999.90;999.90;;;19.00;99.90;;;;;;5063138;28;20196;-74
2022/05/31 10:06:20;;;;;;;1999.90;999.90;;;19.10;99.90;;;;;;5061902;28;20941;-74
2022/05/31 10:08:48;;;;;;;1999.90;999.90;;;19.10;99.90;;;;;;5071798;28;20414;-75
2022/05/31 10:11:21;;;;;;;1999.90;999.90;;;19.20;99.90;;;;;;5072684;28;20456;-73
2022/05/31 10:14:15;;;;;;;1999.90;999.90;;;19.20;99.90;;;;;;5073212;28;20404;-74
2022/05/31 10:16:42;;;;;;;1999.90;999.90;;;19.20;99.90;;;;;;5072861;28;20397;-74
2022/05/31 10:19:24;;;;;;;1999.90;999.90;;;19.10;99.90;;;;;;5072716;28;20412;-73
2022/05/31 10:21:50;;;;;;;1999.90;999.90;;;19.00;99.90;;;;;;5061698;28;20501;-74
2022/05/31 10:24:26;;;;;;;1999.90;999.90;;;19.20;99.90;;;;;;5073531;28;21049;-74
2022/05/31 10:27:13;;;;;;;1999.90;999.90;;;19.50;99.90;;;;;;5057691;28;20167;-74
2022/05/31 10:29:47;;;;;;;1999.90;999.90;;;19.90;99.90;;;;;;5072649;28;20443;-73
2022/05/31 10:32:43;;;;;;;1999.90;999.90;;;20.10;99.90;;;;;;5072382;28;20811;-74
2022/05/31 10:35:14;;;;;;;1999.90;999.90;;;20.50;99.90;;;;;;5043269;28;20930;-75
2022/05/31 10:38:17;;;;;;;1999.90;999.90;;;20.80;99.90;;;;;;5072327;28;20401;-74
2022/05/31 10:41:05;;;;;;;1999.90;999.90;;;21.00;99.90;;;;;;5072909;28;20498;-74
2022/05/31 10:43:42;;;;;;;1999.90;999.90;;;20.90;99.90;;;;;;5072865;28;20393;-73
2022/05/31 10:46:27;;;;;;;1999.90;999.90;;;21.00;99.90;;;;;;5072922;28;20417;-74
2022/05/31 10:49:17;;;;;;;1999.90;999.90;;;21.30;99.90;;;;;;5073472;28;20396;-74
2022/05/31 10:52:01;;;;;;;1999.90;999.90;;;21.70;99.90;;;;;;5072920;28;20412;-74
2022/05/31 10:54:41;;;;;;;1999.90;999.90;;;21.80;99.90;;;;;;5071838;28;20925;-75
2022/05/31 10:57:15;;;;;;;1999.90;999.90;;;22.00;99.90;;;;;;5076474;28;20784;-74
2022/05/31 10:59:43;;;;;;;1999.90;999.90;;;21.90;99.90;;;;;;5073578;28;20424;-74
2022/05/31 11:02:27;;;;;;;1999.90;999.90;;;21.70;99.90;;;;;;5072596;28;20380;-74
2022/05/31 11:05:09;;;;;;;1999.90;999.90;;;21.40;93.70;;;;;;5072636;28;20451;-74
2022/05/31 11:14:01;;;;;;;1999.90;999.90;;;22.20;94.60;;;;;;5073324;28;20407;-74
2022/05/31 11:17:01;;;;;;;1999.90;999.90;;;22.50;92.60;;;;;;5071858;28;20398;-74
2022/05/31 11:19:55;;;;;;;1999.90;999.90;;;22.60;92.10;;;;;;5071765;28;20521;-74
2022/05/31 11:22:35;;;;;;;1999.90;999.90;;;22.50;90.30;;;;;;5074356;28;20368;-74
2022/05/31 11:25:29;;;;;;;1999.90;999.90;;;22.30;87.80;;;;;;5056037;28;20454;-73
2022/05/31 11:28:19;;;;;;;1999.90;999.90;;;22.30;88.90;;;;;;5070602;28;20760;-74
2022/05/31 11:31:06;;;;;;;1999.90;999.90;;;22.20;81.30;;;;;;5072337;28;20477;-74
2022/05/31 11:33:40;;;;;;;1999.90;999.90;;;22.20;77.50;;;;;;5071786;28;20404;-74
2022/05/31 11:36:22;;;;;;;1999.90;999.90;;;22.10;76.30;;;;;;5073032;28;20399;-74
2022/05/31 11:39:01;;;;;;;1999.90;999.90;;;22.20;80.40;;;;;;5074274;28;20379;-74
2022/05/31 11:41:54;;;;;;;1999.90;999.90;;;22.40;83.10;;;;;;5038906;28;20429;-75
2022/05/31 11:44:38;;;;;;;1999.90;999.90;;;22.80;77.90;;;;;;5070668;28;20700;-75
2022/05/31 11:47:13;;;;;;;1999.90;999.90;;;23.30;78.00;;;;;;5072034;28;20936;-75
2022/05/31 11:50:14;;;;;;;1999.90;999.90;;;23.70;73.70;;;;;;5070584;28;20435;-74
2022/05/31 11:53:08;;;;;;;1999.90;999.90;;;23.90;68.80;;;;;;5067720;28;20424;-74
2022/05/31 11:55:58;;;;;;;1999.90;999.90;;;23.60;67.00;;;;;;5071250;28;20413;-74
2022/05/31 11:58:29;;;;;;;1999.90;999.90;;;23.20;56.30;;;;;;5071557;28;20469;-74
2022/05/31 12:01:19;;;;;;;1999.90;999.90;;;22.80;58.30;;;;;;5071298;28;20430;-74
2022/05/31 12:04:06;;;;;;;1999.90;999.90;;;22.50;55.40;;;;;;5071518;28;20972;-74
2022/05/31 12:06:38;;;;;;;1999.90;999.90;;;22.10;58.10;;;;;;5072719;28;20466;-75
2022/05/31 12:09:14;;;;;;;1999.90;999.90;;;21.80;59.80;;;;;;5072047;28;20416;-74
2022/05/31 12:11:52;;;;;;;1999.90;999.90;;;21.50;62.60;;;;;;5071615;28;20461;-74
2022/05/31 12:14:22;;;;;;;1999.90;999.90;;;21.20;64.00;;;;;;5071126;28;20522;-74
2022/05/31 12:16:49;;;;;;;1999.90;999.90;;;21.00;65.20;;;;;;5071365;28;20420;-75
2022/05/31 12:19:33;;;;;;;1999.90;999.90;;;20.80;65.10;;;;;;5071222;28;20778;-75
2022/05/31 12:22:08;;;;;;;1999.90;999.90;;;20.80;65.60;;;;;;5071216;28;20401;-75
2022/05/31 12:24:43;;;;;;;1999.90;999.90;;;20.80;68.10;;;;;;5070948;28;20461;-74
2022/05/31 12:27:20;;;;;;;1999.90;999.90;;;20.90;68.90;;;;;;5076989;28;20408;-73
2022/05/31 12:30:04;;;;;;;1999.90;999.90;;;20.40;66.60;;;;;;5081555;28;20539;-74
2022/05/31 12:32:36;;;;;;;1999.90;999.90;;;19.60;63.40;;;;;;5065979;28;20410;-74
2022/05/31 12:35:04;;;;;;;1999.90;999.90;;;18.80;66.90;;;;;;5080562;28;20976;-74
2022/05/31 12:37:50;;;;;;;1999.90;999.90;;;18.50;65.30;;;;;;5064979;28;20428;-75
2022/05/31 12:40:21;;;;;;;1999.90;999.90;;;18.30;67.80;;;;;;5058855;28;20434;-74
2022/05/31 12:42:49;;;;;;;1999.90;999.90;;;18.30;74.20;;;;;;5074479;28;20488;-74
2022/05/31 12:45:40;;;;;;;1999.90;999.90;;;18.40;77.30;;;;;;5074190;28;20461;-74